Hautcharage, Luxembourg
Current Conditions -  °F | °C
As of 5:20 PM on Wednesday 26 Nov 2014 (Local Time) from ELLX Reporting Station
Haze Haze  
Wind Chill: 37°   Ceiling: 300
Heat Index: 41°   Visibility: 0.93mi
Dew Point: 39°   Wind: 6mph
Humidity: 93%   Direction: 100°E
Pressure: 29.88"   Gusts: NA
Location:  49.58°N, 5.91°E
Report Text: ELLX 261620Z 10005KT 070V130 1500 R06/P1500N BR OVC003 05/04 Q1012 BECMG 0800 FG OVC001
Loading
Personal Weather Stations






























Interactive Weather Map New forecast layout! Learn more

10-Day Weather Forecast

Advertisements
Track Severe Weather on mobile